createdAt,value
2023-02-13T00:00:52.843Z,9.35
2023-02-13T00:03:22.600Z,9.35
2023-02-13T00:05:50.369Z,9.35
2023-02-13T00:08:18.055Z,9.35
2023-02-13T00:10:45.809Z,9.30
2023-02-13T00:13:13.548Z,9.33
2023-02-13T00:15:41.288Z,9.32
2023-02-13T00:18:09.063Z,9.30
2023-02-13T00:20:38.161Z,9.30
2023-02-13T00:23:05.959Z,9.29
2023-02-13T00:25:33.771Z,9.29
2023-02-13T00:28:01.581Z,9.28
2023-02-13T00:30:29.429Z,9.26
2023-02-13T00:32:57.144Z,9.26
2023-02-13T00:35:24.814Z,9.26
2023-02-13T00:37:53.866Z,9.26
2023-02-13T00:40:21.944Z,9.25
2023-02-13T00:42:49.627Z,9.25
2023-02-13T00:45:17.335Z,9.24
2023-02-13T00:47:45.037Z,9.24
2023-02-13T00:50:12.770Z,9.21
2023-02-13T00:52:40.491Z,9.19
2023-02-13T00:55:09.883Z,9.18
2023-02-13T00:57:37.528Z,9.16
2023-02-13T01:00:06.080Z,9.17
2023-02-13T01:02:36.215Z,9.17
2023-02-13T01:05:04.246Z,9.16
2023-02-13T01:07:31.961Z,9.14
2023-02-13T01:09:59.726Z,9.11
2023-02-13T01:12:28.800Z,9.08
2023-02-13T01:14:56.468Z,9.13
2023-02-13T01:17:24.281Z,9.12
2023-02-13T01:19:52.059Z,9.13
2023-02-13T01:22:19.789Z,9.12
2023-02-13T01:24:47.516Z,9.11
2023-02-13T01:27:17.103Z,9.10
2023-02-13T01:29:46.300Z,9.11
2023-02-13T01:32:14.098Z,9.08
2023-02-13T01:34:41.890Z,9.12
2023-02-13T01:37:09.564Z,9.10
2023-02-13T01:39:37.305Z,9.10
2023-02-13T01:42:05.709Z,9.11
2023-02-13T01:44:50.765Z,9.09
2023-02-13T01:47:27.698Z,9.10
2023-02-13T01:50:03.796Z,9.11
2023-02-13T01:52:31.816Z,9.08
2023-02-13T01:54:59.527Z,9.05
2023-02-13T01:57:30.223Z,9.08
2023-02-13T02:00:03.706Z,9.08
2023-02-13T02:02:32.946Z,9.06
2023-02-13T02:05:00.826Z,9.07
2023-02-13T02:07:30.380Z,9.06
2023-02-13T02:10:00.888Z,9.07
2023-02-13T02:12:33.363Z,9.05
2023-02-13T02:15:03.110Z,9.06
2023-02-13T02:17:30.996Z,9.06
2023-02-13T02:20:05.857Z,9.06
2023-02-13T02:23:02.119Z,9.06
2023-02-13T02:25:46.881Z,9.05
2023-02-13T02:28:38.666Z,9.05
2023-02-13T02:31:54.616Z,9.03
2023-02-13T02:34:31.120Z,9.04
2023-02-13T02:37:09.348Z,9.05
2023-02-13T02:39:44.371Z,9.03
2023-02-13T02:42:19.876Z,9.03
2023-02-13T02:44:55.925Z,9.03
2023-02-13T02:47:44.315Z,9.03
2023-02-13T02:50:27.947Z,9.02
2023-02-13T02:53:09.873Z,9.02
2023-02-13T02:55:40.494Z,9.02
2023-02-13T03:01:47.341Z,8.99
2023-02-13T03:04:37.159Z,8.99
2023-02-13T03:07:08.299Z,8.97
2023-02-13T03:09:56.712Z,9.01
2023-02-13T03:12:43.267Z,8.97
2023-02-13T03:15:11.215Z,8.98
2023-02-13T03:17:56.585Z,9.00
2023-02-13T03:20:47.871Z,8.97
2023-02-13T03:23:18.957Z,8.98
2023-02-13T03:26:02.634Z,8.93
2023-02-13T03:28:54.771Z,8.95
2023-02-13T03:31:26.837Z,8.97
2023-02-13T03:33:59.473Z,8.97
2023-02-13T03:36:53.345Z,8.94
2023-02-13T03:39:25.305Z,8.96
2023-02-13T03:41:57.276Z,8.96
2023-02-13T03:44:28.829Z,8.97
2023-02-13T03:47:00.271Z,8.99
2023-02-13T03:49:48.809Z,8.96
2023-02-13T03:52:20.760Z,8.99
2023-02-13T03:55:09.893Z,8.99
2023-02-13T03:57:55.999Z,9.00
2023-02-13T04:00:23.893Z,8.99
2023-02-13T04:02:58.103Z,8.96
2023-02-13T04:05:27.336Z,8.98
2023-02-13T04:07:55.083Z,8.99
2023-02-13T04:10:25.730Z,8.96
2023-02-13T04:12:59.056Z,8.97
2023-02-13T04:15:30.005Z,8.99
2023-02-13T04:18:04.636Z,9.00
2023-02-13T04:20:33.081Z,8.99
2023-02-13T04:23:05.988Z,8.99
2023-02-13T04:25:35.386Z,8.99
2023-02-13T04:28:03.104Z,8.95
2023-02-13T04:30:30.958Z,8.99
2023-02-13T04:32:58.738Z,8.99
2023-02-13T04:35:27.114Z,8.98
2023-02-13T04:37:54.882Z,8.98
2023-02-13T04:40:22.563Z,8.98
2023-02-13T04:42:51.842Z,8.95
2023-02-13T04:45:19.678Z,8.94
2023-02-13T04:47:51.514Z,8.96
2023-02-13T04:50:19.345Z,8.95
2023-02-13T04:52:47.150Z,8.94
2023-02-13T04:55:15.455Z,8.95
2023-02-13T04:57:43.188Z,8.96
2023-02-13T05:00:13.389Z,8.95
2023-02-13T05:02:41.131Z,8.96
2023-02-13T05:05:09.139Z,8.96
2023-02-13T05:07:36.866Z,8.96
2023-02-13T05:10:05.340Z,8.96
2023-02-13T05:12:33.015Z,8.89
2023-02-13T05:15:00.882Z,8.95
2023-02-13T05:17:29.997Z,8.96
2023-02-13T05:19:59.115Z,8.94
2023-02-13T05:22:44.576Z,8.95
2023-02-13T05:25:12.274Z,8.95
2023-02-13T05:27:39.949Z,8.97
2023-02-13T05:30:08.737Z,8.96
2023-02-13T05:32:37.875Z,8.96
2023-02-13T05:35:06.012Z,8.95
2023-02-13T05:37:33.765Z,8.93
2023-02-13T05:40:01.513Z,8.96
2023-02-13T05:42:29.294Z,8.97
2023-02-13T05:44:57.027Z,8.98
2023-02-13T05:47:24.758Z,8.97
2023-02-13T05:49:53.876Z,8.97
2023-02-13T05:52:21.736Z,8.96
2023-02-13T05:54:49.419Z,8.98
2023-02-13T05:57:17.439Z,8.99
2023-02-13T05:59:45.327Z,8.98
2023-02-13T06:02:13.063Z,8.97
2023-02-13T06:04:41.390Z,8.99
2023-02-13T06:07:10.496Z,8.97
2023-02-13T06:09:38.180Z,8.96
2023-02-13T06:12:06.384Z,8.98
2023-02-13T06:14:34.132Z,8.99
2023-02-13T06:17:02.296Z,8.99
2023-02-13T06:19:30.003Z,8.99
2023-02-13T06:21:57.855Z,9.00
2023-02-13T06:24:27.001Z,8.98
2023-02-13T06:26:54.649Z,8.98
2023-02-13T06:29:22.317Z,8.98
2023-02-13T06:31:50.081Z,8.97
2023-02-13T06:34:17.795Z,8.96
2023-02-13T06:36:45.552Z,8.96
2023-02-13T06:39:13.320Z,8.97
2023-02-13T06:41:42.474Z,8.95
2023-02-13T06:44:10.333Z,8.98
2023-02-13T06:46:38.119Z,8.97
2023-02-13T06:49:05.848Z,8.97
2023-02-13T06:51:33.631Z,8.97
2023-02-13T06:54:01.334Z,8.97
2023-02-13T06:56:29.100Z,8.98
2023-02-13T06:58:58.254Z,8.98
2023-02-13T07:01:26.006Z,8.93
2023-02-13T07:03:53.715Z,8.99
2023-02-13T07:06:22.420Z,8.95
2023-02-13T07:08:51.479Z,8.98
2023-02-13T07:11:19.771Z,8.99
2023-02-13T07:13:47.584Z,8.98
2023-02-13T07:16:16.943Z,8.98
2023-02-13T07:18:44.812Z,8.97
2023-02-13T07:21:12.580Z,8.99
2023-02-13T07:23:40.297Z,9.00
2023-02-13T07:26:08.228Z,8.99
2023-02-13T07:28:35.992Z,9.00
2023-02-13T07:31:05.691Z,9.02
2023-02-13T07:33:36.222Z,9.01
2023-02-13T07:36:04.584Z,9.02
2023-02-13T07:38:32.810Z,9.03
2023-02-13T07:41:00.583Z,9.04
2023-02-13T07:43:28.589Z,9.05
2023-02-13T07:45:59.886Z,9.02
2023-02-13T07:48:28.511Z,9.07
2023-02-13T07:51:01.450Z,9.07
2023-02-13T07:53:29.190Z,9.08
2023-02-13T07:55:57.225Z,9.08
2023-02-13T07:58:25.125Z,9.11
2023-02-13T08:00:52.853Z,9.10
2023-02-13T08:03:20.552Z,9.11
2023-02-13T08:05:49.024Z,9.12
2023-02-13T08:08:18.429Z,9.15
2023-02-13T08:11:03.272Z,9.13
2023-02-13T08:13:31.178Z,9.15
2023-02-13T08:15:59.080Z,9.18
2023-02-13T08:18:26.927Z,9.16
2023-02-13T08:20:54.637Z,9.19
2023-02-13T08:23:23.818Z,9.23
2023-02-13T08:25:51.493Z,9.25
2023-02-13T08:28:19.283Z,9.25
2023-02-13T08:30:47.087Z,9.26
2023-02-13T08:33:14.718Z,9.27
2023-02-13T08:35:42.429Z,9.26
2023-02-13T08:38:10.568Z,9.31
2023-02-13T08:40:39.647Z,9.31
2023-02-13T08:43:08.511Z,9.33
2023-02-13T08:45:36.879Z,9.35
2023-02-13T08:48:05.139Z,9.36
2023-02-13T08:50:33.618Z,9.35
2023-02-13T08:53:02.294Z,9.37
2023-02-13T08:55:31.463Z,9.36
2023-02-13T08:58:02.683Z,9.39
2023-02-13T09:00:30.913Z,9.39
2023-02-13T09:03:02.162Z,9.41
2023-02-13T09:05:31.637Z,9.41
2023-02-13T09:08:01.279Z,9.44
2023-02-13T09:10:28.966Z,9.45
2023-02-13T09:12:56.781Z,9.44
2023-02-13T09:15:25.925Z,9.47
2023-02-13T09:17:53.756Z,9.50
2023-02-13T09:20:21.518Z,9.52
2023-02-13T09:22:49.201Z,9.54
2023-02-13T09:25:17.015Z,9.57
2023-02-13T09:27:44.702Z,9.61
2023-02-13T09:30:15.281Z,9.61
2023-02-13T09:32:44.600Z,9.64
2023-02-13T09:35:14.961Z,9.66
2023-02-13T09:37:42.697Z,9.69
2023-02-13T09:40:18.532Z,9.71
2023-02-13T09:42:47.244Z,9.72
2023-02-13T09:45:15.405Z,9.70
2023-02-13T09:47:45.291Z,9.76
2023-02-13T09:50:16.262Z,9.77
2023-02-13T09:52:45.867Z,9.75
2023-02-13T09:55:18.674Z,9.79
2023-02-13T09:57:53.145Z,9.82
2023-02-13T10:00:23.269Z,9.83
2023-02-13T10:03:23.510Z,9.88
2023-02-13T10:05:59.314Z,9.88
2023-02-13T10:08:36.271Z,9.89
2023-02-13T10:11:08.321Z,9.95
2023-02-13T10:13:53.296Z,9.96
2023-02-13T10:16:23.720Z,9.96
2023-02-13T10:18:55.791Z,9.97
2023-02-13T10:21:26.001Z,9.99
2023-02-13T10:23:59.190Z,9.98
2023-02-13T10:26:42.603Z,10.00
2023-02-13T10:29:34.046Z,10.05
2023-02-13T10:32:04.891Z,10.05
2023-02-13T10:34:40.018Z,9.99
2023-02-13T10:37:13.786Z,10.01
2023-02-13T10:39:42.741Z,9.98
2023-02-13T10:42:20.202Z,10.03
2023-02-13T10:44:56.724Z,10.04
2023-02-13T10:47:38.538Z,10.08
2023-02-13T10:50:17.090Z,10.11
2023-02-13T10:52:51.260Z,10.12
2023-02-13T10:55:36.200Z,10.12
2023-02-13T10:58:09.481Z,10.16
2023-02-13T11:00:43.068Z,10.20
2023-02-13T11:03:19.026Z,10.23
2023-02-13T11:05:48.196Z,10.24
2023-02-13T11:08:20.029Z,10.22
2023-02-13T11:10:47.727Z,10.26
2023-02-13T11:13:20.494Z,10.26
2023-02-13T11:16:00.292Z,10.24
2023-02-13T11:18:30.343Z,10.19
2023-02-13T11:21:07.883Z,10.24
2023-02-13T11:23:39.034Z,10.29
2023-02-13T11:26:09.907Z,10.34
2023-02-13T11:28:49.369Z,10.40
2023-02-13T11:31:24.672Z,10.46
2023-02-13T11:33:52.676Z,10.46
2023-02-13T11:36:27.121Z,10.46
2023-02-13T11:39:02.789Z,10.51
2023-02-13T11:41:33.136Z,10.52
2023-02-13T11:44:02.208Z,10.56
2023-02-13T11:46:31.536Z,10.66
2023-02-13T11:49:01.258Z,10.83
2023-02-13T11:51:41.613Z,11.02
2023-02-13T11:54:27.062Z,11.25
2023-02-13T11:57:05.148Z,11.38
2023-02-13T11:59:40.180Z,11.59
2023-02-13T12:02:16.262Z,11.55
2023-02-13T12:04:44.034Z,11.72
2023-02-13T12:07:18.775Z,11.77
2023-02-13T12:09:47.595Z,11.85
2023-02-13T12:12:19.134Z,11.75
2023-02-13T12:14:47.524Z,11.72
2023-02-13T12:17:30.927Z,11.78
2023-02-13T12:19:59.831Z,11.82
2023-02-13T12:22:41.566Z,11.92
2023-02-13T12:25:20.474Z,12.01
2023-02-13T12:27:54.257Z,12.07
2023-02-13T12:30:55.596Z,12.19
2023-02-13T12:33:38.344Z,12.27
2023-02-13T12:36:11.558Z,12.27
2023-02-13T12:38:54.372Z,12.35
2023-02-13T12:41:23.853Z,12.35
2023-02-13T12:44:14.138Z,12.39
2023-02-13T12:46:52.652Z,12.42
2023-02-13T12:49:42.897Z,12.36
2023-02-13T12:52:22.338Z,12.27
2023-02-13T12:55:00.380Z,12.31
2023-02-13T12:57:38.636Z,12.28
2023-02-13T13:00:23.655Z,12.34
2023-02-13T13:03:13.800Z,12.34
2023-02-13T13:06:09.044Z,12.35
2023-02-13T13:08:58.242Z,12.36
2023-02-13T13:11:41.227Z,12.32
2023-02-13T13:14:13.880Z,12.29
2023-02-13T13:16:46.795Z,12.30
2023-02-13T13:19:21.481Z,12.30
2023-02-13T13:21:54.422Z,12.37
2023-02-13T13:24:39.194Z,12.44
2023-02-13T13:27:20.640Z,12.46
2023-02-13T13:29:53.155Z,12.47
2023-02-13T13:32:22.603Z,12.49
2023-02-13T13:34:50.295Z,12.49
2023-02-13T13:37:23.291Z,12.53
2023-02-13T13:39:53.982Z,12.55
2023-02-13T13:42:28.205Z,12.56
2023-02-13T13:45:19.355Z,12.55
2023-02-13T13:47:53.796Z,12.54
2023-02-13T13:50:24.142Z,12.52
2023-02-13T13:53:08.971Z,12.50
2023-02-13T13:56:03.438Z,12.52
2023-02-13T13:58:39.280Z,12.53
2023-02-13T14:01:18.991Z,12.55
2023-02-13T14:03:47.193Z,12.56
2023-02-13T14:06:16.398Z,12.61
2023-02-13T14:09:07.270Z,12.61
2023-02-13T14:11:46.546Z,12.66
2023-02-13T14:14:52.435Z,12.70
2023-02-13T14:17:53.797Z,12.73
2023-02-13T14:20:37.671Z,12.75
2023-02-13T14:23:29.902Z,12.79
2023-02-13T14:26:18.763Z,12.80
2023-02-13T14:28:58.535Z,12.84
2023-02-13T14:31:28.370Z,12.79
2023-02-13T14:33:59.651Z,12.77
2023-02-13T14:36:33.311Z,12.78
2023-02-13T14:39:03.149Z,12.76
2023-02-13T14:41:57.267Z,12.77
2023-02-13T14:44:26.915Z,12.78
2023-02-13T14:46:55.465Z,12.84
2023-02-13T14:49:25.929Z,12.84
2023-02-13T14:51:55.554Z,12.84
2023-02-13T14:54:28.726Z,12.78
2023-02-13T14:57:02.043Z,12.84
2023-02-13T14:59:35.238Z,12.83
2023-02-13T15:02:09.762Z,12.84
2023-02-13T15:04:42.457Z,12.83
2023-02-13T15:07:15.914Z,12.84
2023-02-13T15:09:49.752Z,12.76
2023-02-13T15:12:28.876Z,12.71
2023-02-13T15:14:56.737Z,12.60
2023-02-13T15:17:27.109Z,12.48
2023-02-13T15:19:59.714Z,12.36
2023-02-13T15:22:32.345Z,12.28
2023-02-13T15:25:00.434Z,12.23
2023-02-13T15:27:29.930Z,12.18
2023-02-13T15:30:01.254Z,12.12
2023-02-13T15:32:32.366Z,12.06
2023-02-13T15:35:01.692Z,12.05
2023-02-13T15:37:31.773Z,12.01
2023-02-13T15:40:15.896Z,11.95
2023-02-13T15:42:43.691Z,11.91
2023-02-13T15:45:15.745Z,11.90
2023-02-13T15:47:44.148Z,11.86
2023-02-13T15:50:23.551Z,11.79
2023-02-13T15:52:52.182Z,11.77
2023-02-13T15:55:22.227Z,11.74
2023-02-13T15:57:51.625Z,11.70
2023-02-13T16:00:25.083Z,11.64
2023-02-13T16:02:54.402Z,11.65
2023-02-13T16:05:38.539Z,11.63
2023-02-13T16:08:27.732Z,11.60
2023-02-13T16:11:11.498Z,11.57
2023-02-13T16:13:39.259Z,11.56
2023-02-13T16:16:11.041Z,11.52
2023-02-13T16:18:38.748Z,11.52
2023-02-13T16:21:09.146Z,11.49
2023-02-13T16:23:36.904Z,11.47
2023-02-13T16:26:06.812Z,11.44
2023-02-13T16:28:35.192Z,11.41
2023-02-13T16:31:04.566Z,11.40
2023-02-13T16:33:33.125Z,11.34
2023-02-13T16:36:01.983Z,11.33
2023-02-13T16:38:33.980Z,11.29
2023-02-13T16:41:03.148Z,11.25
2023-02-13T16:44:42.956Z,11.17
2023-02-13T16:47:19.307Z,11.12
2023-02-13T16:49:52.774Z,11.10
2023-02-13T16:52:24.223Z,11.05
2023-02-13T16:54:54.755Z,11.01
2023-02-13T16:57:25.670Z,10.99
2023-02-13T17:00:08.544Z,10.95
2023-02-13T17:02:38.456Z,10.89
2023-02-13T17:05:22.240Z,10.84
2023-02-13T17:07:51.954Z,10.78
2023-02-13T17:10:21.837Z,10.73
2023-02-13T17:12:50.430Z,10.68
2023-02-13T17:15:21.728Z,10.63
2023-02-13T17:17:50.597Z,10.58
2023-02-13T17:20:22.163Z,10.54
2023-02-13T17:22:51.833Z,10.50
2023-02-13T17:25:22.576Z,10.44
2023-02-13T17:30:24.916Z,10.33
2023-02-13T17:32:57.055Z,10.28
2023-02-13T17:35:24.708Z,10.23
2023-02-13T17:37:52.414Z,10.19
2023-02-13T17:40:22.258Z,10.15
2023-02-13T17:42:53.321Z,10.11
2023-02-13T17:45:24.928Z,10.07
2023-02-13T17:47:53.145Z,10.01
2023-02-13T17:50:21.572Z,9.97
2023-02-13T17:52:49.864Z,9.93
2023-02-13T17:55:18.943Z,9.85
2023-02-13T17:57:46.901Z,9.82
2023-02-13T18:00:15.738Z,9.80
2023-02-13T18:02:45.393Z,9.77
2023-02-13T18:05:13.124Z,9.70
2023-02-13T18:07:42.499Z,9.70
2023-02-13T18:10:13.210Z,9.64
2023-02-13T18:12:42.257Z,9.64
2023-02-13T18:15:11.019Z,9.62
2023-02-13T18:17:39.773Z,9.59
2023-02-13T18:20:12.192Z,9.57
2023-02-13T18:22:39.996Z,9.52
2023-02-13T18:25:08.875Z,9.48
2023-02-13T18:27:36.728Z,9.42
2023-02-13T18:30:04.905Z,9.39
2023-02-13T18:32:32.642Z,9.34
2023-02-13T18:35:00.388Z,9.30
2023-02-13T18:37:30.070Z,9.27
2023-02-13T18:39:58.222Z,9.22
2023-02-13T18:42:26.007Z,9.17
2023-02-13T18:44:54.050Z,9.10
2023-02-13T18:47:21.811Z,9.08
2023-02-13T18:49:49.505Z,9.03
2023-02-13T18:52:17.347Z,9.00
2023-02-13T18:54:46.508Z,8.97
2023-02-13T18:57:14.218Z,8.96
2023-02-13T18:59:41.911Z,8.95
2023-02-13T19:02:10.430Z,8.90
2023-02-13T19:04:38.284Z,8.87
2023-02-13T19:07:06.155Z,8.83
2023-02-13T19:09:35.613Z,8.81
2023-02-13T19:12:04.948Z,8.78
2023-02-13T19:14:32.741Z,8.76
2023-02-13T19:17:00.447Z,8.74
2023-02-13T19:19:28.193Z,8.73
2023-02-13T19:21:55.870Z,8.69
2023-02-13T19:24:23.599Z,8.67
2023-02-13T19:26:51.352Z,8.63
2023-02-13T19:29:20.504Z,8.60
2023-02-13T19:31:48.359Z,8.58
2023-02-13T19:34:16.501Z,8.54
2023-02-13T19:36:44.139Z,8.51
2023-02-13T19:39:12.290Z,8.47
2023-02-13T19:41:40.896Z,8.45
2023-02-13T19:44:09.106Z,8.42
2023-02-13T19:46:38.965Z,8.39
2023-02-13T19:49:07.336Z,8.38
2023-02-13T19:51:37.424Z,8.32
2023-02-13T19:54:07.059Z,8.33
2023-02-13T19:56:37.400Z,8.32
2023-02-13T19:59:06.470Z,8.31
2023-02-13T20:01:34.191Z,8.33
2023-02-13T20:04:03.412Z,8.34
2023-02-13T20:06:34.934Z,8.33
2023-02-13T20:09:05.722Z,8.35
2023-02-13T20:11:33.625Z,8.32
2023-02-13T20:14:01.812Z,8.32
2023-02-13T20:16:32.929Z,8.30
2023-02-13T20:19:03.623Z,8.30
2023-02-13T20:21:33.078Z,8.30
2023-02-13T20:24:02.824Z,8.30
2023-02-13T20:26:30.665Z,8.30
2023-02-13T20:28:59.661Z,8.29
2023-02-13T20:31:29.111Z,8.34
2023-02-13T20:33:57.117Z,8.34
2023-02-13T20:36:28.025Z,8.34
2023-02-13T20:38:58.316Z,8.38
2023-02-13T20:41:27.226Z,8.38
2023-02-13T20:43:58.805Z,8.38
2023-02-13T20:46:27.029Z,8.39
2023-02-13T20:48:54.848Z,8.38
2023-02-13T20:51:22.688Z,8.34
2023-02-13T20:53:51.976Z,8.34
2023-02-13T20:56:21.452Z,8.30
2023-02-13T20:58:50.299Z,8.28
2023-02-13T21:01:20.104Z,8.25
2023-02-13T21:03:53.423Z,8.19
2023-02-13T21:06:21.800Z,8.15
2023-02-13T21:08:51.430Z,8.13
2023-02-13T21:11:19.555Z,8.10
2023-02-13T21:13:47.706Z,8.08
2023-02-13T21:16:17.830Z,8.06
2023-02-13T21:18:48.862Z,8.01
2023-02-13T21:21:16.981Z,8.04
2023-02-13T21:23:44.839Z,8.04
2023-02-13T21:26:15.782Z,8.00
2023-02-13T21:28:45.877Z,8.00
2023-02-13T21:31:15.609Z,7.96
2023-02-13T21:33:43.357Z,7.90
2023-02-13T21:36:12.704Z,7.90
2023-02-13T21:38:41.490Z,7.86
2023-02-13T21:41:10.623Z,7.84
2023-02-13T21:43:40.356Z,7.79
2023-02-13T21:46:09.630Z,7.77
2023-02-13T21:48:37.478Z,7.74
2023-02-13T21:51:08.820Z,7.72
2023-02-13T21:53:36.649Z,7.69
2023-02-13T21:56:04.485Z,7.66
2023-02-13T21:58:33.813Z,7.65
2023-02-13T22:01:03.280Z,7.63
2023-02-13T22:03:31.175Z,7.62
2023-02-13T22:05:58.899Z,7.61
2023-02-13T22:08:26.666Z,7.61
2023-02-13T22:10:55.192Z,7.62
2023-02-13T22:13:22.926Z,7.61
2023-02-13T22:15:59.837Z,7.58
2023-02-13T22:18:31.589Z,7.51
2023-02-13T22:20:59.769Z,7.56
2023-02-13T22:23:27.678Z,7.54
2023-02-13T22:25:55.323Z,7.55
2023-02-13T22:28:23.149Z,7.55
2023-02-13T22:30:50.927Z,7.54
2023-02-13T22:33:18.690Z,7.55
2023-02-13T22:35:50.210Z,7.53
2023-02-13T22:38:18.396Z,7.53
2023-02-13T22:40:46.039Z,7.51
2023-02-13T22:43:13.720Z,7.48
2023-02-13T22:45:41.416Z,7.47
2023-02-13T22:48:09.095Z,7.46
2023-02-13T22:50:36.802Z,7.46
2023-02-13T22:53:05.890Z,7.46
2023-02-13T22:55:34.593Z,7.44
2023-02-13T22:58:02.361Z,7.43
2023-02-13T23:00:30.076Z,7.41
2023-02-13T23:02:57.806Z,7.39
2023-02-13T23:05:25.553Z,7.36
2023-02-13T23:07:53.281Z,7.34
2023-02-13T23:10:25.803Z,7.31
2023-02-13T23:12:52.529Z,7.31
2023-02-13T23:15:20.362Z,7.29
2023-02-13T23:18:05.713Z,7.25
2023-02-13T23:20:33.434Z,7.22
2023-02-13T23:23:02.249Z,7.20
2023-02-13T23:25:32.223Z,7.21
2023-02-13T23:27:59.994Z,7.20
2023-02-13T23:30:28.621Z,7.19
2023-02-13T23:32:56.461Z,7.17
2023-02-13T23:35:24.487Z,7.16
2023-02-13T23:37:52.152Z,7.14
2023-02-13T23:40:20.569Z,7.12
2023-02-13T23:42:49.671Z,7.12
2023-02-13T23:45:17.680Z,7.10
2023-02-13T23:47:45.498Z,7.08
2023-02-13T23:50:13.239Z,7.06
2023-02-13T23:52:40.878Z,7.06
2023-02-13T23:55:08.993Z,7.03
2023-02-13T23:57:36.687Z,7.02
